createdAt,value
2022-08-26T00:00:04.627Z,98.60
2022-08-26T00:03:04.144Z,98.80
2022-08-26T00:05:35.580Z,98.80
2022-08-26T00:08:07.120Z,98.80
2022-08-26T00:10:39.062Z,99.00
2022-08-26T00:13:13.139Z,99.00
2022-08-26T00:15:44.671Z,99.00
2022-08-26T00:18:21.839Z,99.10
2022-08-26T00:20:53.555Z,99.10
2022-08-26T00:23:24.813Z,99.00
2022-08-26T00:25:59.696Z,99.30
2022-08-26T00:28:35.719Z,99.30
2022-08-26T00:31:07.261Z,99.30
2022-08-26T00:33:38.481Z,99.30
2022-08-26T00:36:20.133Z,99.40
2022-08-26T00:38:51.632Z,99.30
2022-08-26T00:41:22.892Z,99.70
2022-08-26T00:43:56.606Z,99.50
2022-08-26T00:46:32.133Z,99.80
2022-08-26T00:49:12.070Z,99.60
2022-08-26T00:51:46.604Z,99.50
2022-08-26T00:54:18.134Z,99.60
2022-08-26T00:56:53.027Z,99.60
2022-08-26T00:59:27.032Z,99.80
2022-08-26T01:01:59.466Z,99.90
2022-08-26T01:04:31.503Z,99.80
2022-08-26T01:07:02.925Z,99.90
2022-08-26T01:09:35.044Z,99.90
2022-08-26T01:12:09.037Z,99.90
2022-08-26T01:14:43.178Z,99.90
2022-08-26T01:17:17.398Z,99.90
2022-08-26T01:19:49.841Z,97.10
2022-08-26T01:22:22.327Z,99.90
2022-08-26T01:25:03.398Z,99.90
2022-08-26T01:27:35.576Z,99.60
2022-08-26T01:30:07.865Z,96.70
2022-08-26T01:32:39.056Z,96.70
2022-08-26T01:35:10.933Z,98.70
2022-08-26T01:37:42.022Z,98.60
2022-08-26T01:40:20.051Z,98.50
2022-08-26T01:42:52.023Z,97.20
2022-08-26T01:45:25.452Z,99.90
2022-08-26T01:47:57.373Z,99.90
2022-08-26T01:50:31.217Z,99.80
2022-08-26T01:53:05.308Z,99.80
2022-08-26T01:55:40.036Z,99.40
2022-08-26T01:58:12.699Z,99.60
2022-08-26T02:00:44.338Z,99.70
2022-08-26T02:03:22.384Z,99.80
2022-08-26T02:05:56.318Z,99.90
2022-08-26T02:08:32.227Z,99.80
2022-08-26T02:11:06.970Z,99.90
2022-08-26T02:13:41.173Z,99.90
2022-08-26T02:16:13.722Z,99.90
2022-08-26T02:18:44.952Z,99.80
2022-08-26T02:21:19.143Z,99.90
2022-08-26T02:23:49.993Z,99.90
2022-08-26T02:26:27.009Z,99.90
2022-08-26T02:28:59.713Z,99.90
2022-08-26T02:31:32.185Z,99.80
2022-08-26T02:34:10.769Z,99.90
2022-08-26T02:36:42.156Z,99.80
2022-08-26T02:39:15.049Z,99.70
2022-08-26T02:41:53.275Z,99.90
2022-08-26T02:44:24.450Z,99.70
2022-08-26T02:46:56.823Z,99.90
2022-08-26T02:49:28.502Z,99.90
2022-08-26T02:52:01.920Z,99.90
2022-08-26T02:54:35.914Z,99.90
2022-08-26T02:57:09.849Z,99.40
2022-08-26T02:59:41.429Z,99.90
2022-08-26T03:02:12.942Z,99.90
2022-08-26T03:04:57.673Z,99.90
2022-08-26T03:07:34.676Z,99.90
2022-08-26T03:10:06.866Z,99.90
2022-08-26T03:12:43.197Z,99.90
2022-08-26T03:15:19.260Z,99.90
2022-08-26T03:17:50.750Z,99.80
2022-08-26T03:20:21.700Z,99.90
2022-08-26T03:22:53.631Z,99.90
2022-08-26T03:25:27.088Z,99.90
2022-08-26T03:28:00.983Z,99.90
2022-08-26T03:30:44.912Z,99.90
2022-08-26T03:33:17.230Z,99.90
2022-08-26T03:35:50.545Z,99.90
2022-08-26T03:38:22.321Z,99.90
2022-08-26T03:40:53.115Z,99.90
2022-08-26T03:43:27.333Z,99.90
2022-08-26T03:45:58.224Z,99.90
2022-08-26T03:48:29.331Z,99.90
2022-08-26T03:51:01.174Z,99.90
2022-08-26T03:53:34.285Z,99.90
2022-08-26T03:56:07.181Z,99.90
2022-08-26T03:58:42.859Z,99.90
2022-08-26T04:01:16.233Z,99.90
2022-08-26T04:04:02.432Z,99.90
2022-08-26T04:06:35.346Z,99.90
2022-08-26T04:09:08.413Z,99.90
2022-08-26T04:11:39.767Z,99.90
2022-08-26T04:14:17.611Z,99.90
2022-08-26T04:16:51.313Z,99.90
2022-08-26T04:19:23.037Z,99.90
2022-08-26T04:21:56.307Z,99.90
2022-08-26T04:24:28.597Z,99.90
2022-08-26T04:26:59.500Z,99.90
2022-08-26T04:29:33.424Z,99.90
2022-08-26T04:32:05.802Z,99.90
2022-08-26T04:34:37.976Z,99.90
2022-08-26T04:37:10.684Z,99.90
2022-08-26T04:39:41.823Z,99.90
2022-08-26T04:42:14.033Z,99.90
2022-08-26T04:44:47.831Z,99.90
2022-08-26T04:47:18.891Z,99.90
2022-08-26T04:49:50.247Z,99.90
2022-08-26T04:52:23.003Z,99.90
2022-08-26T04:54:54.254Z,99.90
2022-08-26T04:57:25.361Z,99.90
2022-08-26T04:59:59.587Z,99.90
2022-08-26T05:02:31.752Z,99.90
2022-08-26T05:05:04.832Z,99.90
2022-08-26T05:07:35.782Z,99.90
2022-08-26T05:10:11.590Z,99.90
2022-08-26T05:12:42.503Z,99.90
2022-08-26T05:15:18.227Z,99.90
2022-08-26T05:17:50.578Z,99.90
2022-08-26T05:20:25.674Z,99.90
2022-08-26T05:22:57.185Z,99.90
2022-08-26T05:25:28.255Z,99.90
2022-08-26T05:27:59.672Z,99.90
2022-08-26T05:30:34.274Z,99.90
2022-08-26T05:33:05.328Z,98.30
2022-08-26T05:35:38.437Z,99.90
2022-08-26T05:38:12.937Z,99.90
2022-08-26T05:40:46.572Z,99.90
2022-08-26T05:43:17.858Z,99.90
2022-08-26T05:45:53.991Z,99.80
2022-08-26T05:48:25.094Z,99.90
2022-08-26T05:50:56.508Z,98.80
2022-08-26T05:53:27.393Z,99.00
2022-08-26T05:55:58.619Z,98.70
2022-08-26T05:58:31.008Z,98.60
2022-08-26T06:01:07.151Z,96.50
2022-08-26T06:03:39.588Z,97.90
2022-08-26T06:06:15.572Z,98.20
2022-08-26T06:08:51.385Z,97.40
2022-08-26T06:11:25.582Z,97.00
2022-08-26T06:14:03.542Z,97.60
2022-08-26T06:16:40.866Z,97.50
2022-08-26T06:19:12.448Z,97.10
2022-08-26T06:21:44.840Z,97.30
2022-08-26T06:24:28.784Z,97.30
2022-08-26T06:27:01.790Z,97.50
2022-08-26T06:29:36.610Z,96.60
2022-08-26T06:32:11.783Z,96.40
2022-08-26T06:34:42.458Z,96.50
2022-08-26T06:37:14.113Z,95.40
2022-08-26T06:39:44.845Z,96.00
2022-08-26T06:42:15.952Z,95.80
2022-08-26T06:44:46.787Z,96.00
2022-08-26T06:47:20.723Z,95.70
2022-08-26T06:49:51.635Z,95.50
2022-08-26T06:52:24.541Z,95.20
2022-08-26T06:54:55.550Z,95.40
2022-08-26T06:57:26.814Z,95.30
2022-08-26T06:59:57.680Z,95.30
2022-08-26T07:02:31.441Z,95.20
2022-08-26T07:05:02.379Z,94.80
2022-08-26T07:07:33.611Z,95.10
2022-08-26T07:10:05.545Z,94.90
2022-08-26T07:12:37.454Z,91.30
2022-08-26T07:15:08.920Z,94.80
2022-08-26T07:17:42.770Z,93.30
2022-08-26T07:20:14.588Z,92.50
2022-08-26T07:22:45.718Z,93.30
2022-08-26T07:25:16.550Z,92.50
2022-08-26T07:27:53.970Z,91.10
2022-08-26T07:30:25.785Z,91.20
2022-08-26T07:33:01.849Z,92.40
2022-08-26T07:35:32.737Z,91.30
2022-08-26T07:38:04.653Z,91.10
2022-08-26T07:40:35.883Z,91.50
2022-08-26T07:43:07.442Z,91.10
2022-08-26T07:45:39.419Z,91.00
2022-08-26T07:48:13.133Z,90.50
2022-08-26T07:50:50.389Z,91.20
2022-08-26T07:53:21.820Z,92.10
2022-08-26T07:55:55.069Z,91.30
2022-08-26T07:58:27.113Z,90.30
2022-08-26T08:00:58.377Z,90.50
2022-08-26T08:03:32.703Z,87.50
2022-08-26T08:06:03.640Z,87.50
2022-08-26T08:08:35.699Z,86.70
2022-08-26T08:11:06.531Z,87.00
2022-08-26T08:13:41.465Z,86.20
2022-08-26T08:16:12.815Z,86.70
2022-08-26T08:18:46.582Z,90.30
2022-08-26T08:21:21.669Z,86.80
2022-08-26T08:23:54.775Z,86.10
2022-08-26T08:26:26.636Z,85.40
2022-08-26T08:28:58.576Z,83.70
2022-08-26T08:31:56.108Z,83.40
2022-08-26T08:34:24.579Z,84.00
2022-08-26T08:36:57.539Z,81.90
2022-08-26T08:39:29.126Z,83.70
2022-08-26T08:42:06.698Z,85.00
2022-08-26T08:44:41.083Z,83.90
2022-08-26T08:47:15.525Z,85.40
2022-08-26T08:49:50.313Z,83.60
2022-08-26T08:52:28.631Z,82.80
2022-08-26T08:54:59.977Z,82.60
2022-08-26T08:57:34.911Z,83.00
2022-08-26T09:00:08.515Z,83.50
2022-08-26T09:02:43.716Z,82.40
2022-08-26T09:05:21.836Z,81.80
2022-08-26T09:07:55.111Z,81.80
2022-08-26T09:10:31.589Z,81.70
2022-08-26T09:13:04.523Z,82.90
2022-08-26T09:15:39.244Z,81.10
2022-08-26T09:18:13.235Z,82.10
2022-08-26T09:20:51.774Z,82.20
2022-08-26T09:23:22.784Z,81.40
2022-08-26T09:25:57.003Z,81.60
2022-08-26T09:28:29.301Z,81.00
2022-08-26T09:31:09.192Z,81.70
2022-08-26T09:33:42.254Z,81.40
2022-08-26T09:36:24.819Z,80.40
2022-08-26T09:38:56.528Z,79.90
2022-08-26T09:41:31.871Z,80.60
2022-08-26T09:44:16.604Z,80.20
2022-08-26T09:46:49.379Z,81.70
2022-08-26T09:49:25.584Z,83.30
2022-08-26T09:52:12.655Z,82.70
2022-08-26T09:54:46.986Z,83.30
2022-08-26T09:57:23.455Z,81.10
2022-08-26T09:59:54.509Z,81.00
2022-08-26T10:02:41.806Z,81.70
2022-08-26T10:05:20.293Z,81.30
2022-08-26T10:07:53.640Z,81.40
2022-08-26T10:10:29.166Z,80.10
2022-08-26T10:13:04.193Z,79.90
2022-08-26T10:15:43.361Z,78.30
2022-08-26T10:18:21.964Z,79.10
2022-08-26T10:20:57.588Z,77.90
2022-08-26T10:23:31.450Z,78.50
2022-08-26T10:26:07.172Z,81.90
2022-08-26T10:28:40.393Z,79.30
2022-08-26T10:31:21.355Z,78.40
2022-08-26T10:34:00.814Z,78.60
2022-08-26T10:37:13.522Z,76.60
2022-08-26T10:39:39.450Z,75.30
2022-08-26T10:42:16.818Z,74.70
2022-08-26T10:44:51.782Z,74.10
2022-08-26T10:47:24.721Z,73.30
2022-08-26T10:50:02.962Z,71.80
2022-08-26T10:52:39.477Z,74.80
2022-08-26T10:55:17.844Z,74.30
2022-08-26T10:57:58.240Z,72.50
2022-08-26T11:00:45.109Z,71.80
2022-08-26T11:03:26.828Z,70.60
2022-08-26T11:06:12.870Z,73.90
2022-08-26T11:08:48.443Z,69.80
2022-08-26T11:11:35.127Z,70.30
2022-08-26T11:14:10.349Z,67.80
2022-08-26T11:16:43.766Z,67.50
2022-08-26T11:19:15.948Z,67.80
2022-08-26T11:21:54.608Z,66.80
2022-08-26T11:24:40.358Z,65.00
2022-08-26T11:27:14.226Z,64.90
2022-08-26T11:30:03.953Z,64.30
2022-08-26T11:32:50.026Z,63.70
2022-08-26T11:35:45.941Z,64.20
2022-08-26T11:38:37.210Z,64.10
2022-08-26T11:41:12.368Z,62.50
2022-08-26T11:43:43.805Z,61.90
2022-08-26T11:46:26.274Z,62.60
2022-08-26T11:49:05.468Z,62.30
2022-08-26T11:51:40.889Z,62.50
2022-08-26T11:54:13.770Z,62.80
2022-08-26T11:56:48.114Z,62.10
2022-08-26T11:59:21.843Z,61.60
2022-08-26T12:01:56.419Z,60.40
2022-08-26T12:04:32.307Z,63.30
2022-08-26T12:07:05.055Z,60.80
2022-08-26T12:09:40.948Z,60.50
2022-08-26T12:12:16.106Z,59.30
2022-08-26T12:14:47.811Z,61.00
2022-08-26T12:17:22.734Z,59.80
2022-08-26T12:19:53.914Z,59.30
2022-08-26T12:22:26.246Z,57.30
2022-08-26T12:24:59.800Z,58.40
2022-08-26T12:27:31.996Z,58.50
2022-08-26T12:30:03.872Z,57.30
2022-08-26T12:32:52.843Z,58.10
2022-08-26T12:35:30.247Z,57.00
2022-08-26T12:38:03.320Z,59.10
2022-08-26T12:40:36.050Z,58.40
2022-08-26T12:43:07.906Z,62.10
2022-08-26T12:45:41.746Z,59.60
2022-08-26T12:48:16.521Z,61.30
2022-08-26T12:50:50.162Z,58.80
2022-08-26T12:53:24.893Z,59.30
2022-08-26T12:55:57.013Z,60.70
2022-08-26T12:58:29.851Z,58.50
2022-08-26T13:01:01.906Z,58.00
2022-08-26T13:03:43.528Z,59.70
2022-08-26T13:06:17.180Z,58.30
2022-08-26T13:08:48.893Z,57.30
2022-08-26T13:11:21.329Z,56.60
2022-08-26T13:13:53.603Z,56.20
2022-08-26T13:16:25.573Z,54.20
2022-08-26T13:19:00.433Z,59.00
2022-08-26T13:21:37.756Z,56.80
2022-08-26T13:24:11.892Z,54.90
2022-08-26T13:26:43.832Z,55.30
2022-08-26T13:29:14.995Z,55.00
2022-08-26T13:31:46.878Z,55.30
2022-08-26T13:34:22.428Z,56.30
2022-08-26T13:36:54.871Z,55.60
2022-08-26T13:39:26.192Z,55.40
2022-08-26T13:41:58.043Z,55.30
2022-08-26T13:44:28.928Z,55.10
2022-08-26T13:47:00.267Z,56.50
2022-08-26T13:49:34.150Z,55.30
2022-08-26T13:52:05.776Z,61.60
2022-08-26T13:54:37.018Z,56.60
2022-08-26T13:57:09.391Z,55.40
2022-08-26T13:59:40.326Z,56.50
2022-08-26T14:02:11.791Z,56.50
2022-08-26T14:04:45.354Z,57.50
2022-08-26T14:07:16.598Z,57.40
2022-08-26T14:09:47.435Z,59.40
2022-08-26T14:12:18.565Z,57.90
2022-08-26T14:14:49.532Z,57.10
2022-08-26T14:17:23.945Z,57.60
2022-08-26T14:19:57.390Z,57.00
2022-08-26T14:22:28.625Z,56.10
2022-08-26T14:24:59.466Z,56.30
2022-08-26T14:27:30.545Z,57.20
2022-08-26T14:30:01.444Z,56.90
2022-08-26T14:32:33.330Z,56.50
2022-08-26T14:35:06.948Z,56.20
2022-08-26T14:37:38.088Z,55.50
2022-08-26T14:40:09.474Z,55.90
2022-08-26T14:42:41.998Z,54.70
2022-08-26T14:45:16.185Z,55.90
2022-08-26T14:47:48.050Z,56.00
2022-08-26T14:50:22.915Z,55.70
2022-08-26T14:53:06.746Z,54.10
2022-08-26T14:55:38.484Z,60.70
2022-08-26T14:58:09.987Z,59.70
2022-08-26T15:00:41.745Z,56.00
2022-08-26T15:06:07.543Z,53.30
2022-08-26T15:08:40.292Z,53.70
2022-08-26T15:11:11.073Z,54.60
2022-08-26T15:13:42.134Z,53.50
2022-08-26T15:16:13.225Z,55.00
2022-08-26T15:18:44.508Z,53.30
2022-08-26T15:21:18.054Z,55.80
2022-08-26T15:23:49.886Z,54.00
2022-08-26T15:26:21.435Z,54.50
2022-08-26T15:28:53.220Z,53.60
2022-08-26T15:31:31.157Z,55.10
2022-08-26T15:34:03.532Z,54.10
2022-08-26T15:36:38.938Z,53.90
2022-08-26T15:39:10.387Z,53.60
2022-08-26T15:41:41.286Z,53.70
2022-08-26T15:44:12.789Z,55.30
2022-08-26T15:46:43.763Z,54.00
2022-08-26T15:49:18.399Z,52.90
2022-08-26T15:51:53.140Z,55.80
2022-08-26T15:54:25.883Z,53.60
2022-08-26T15:56:59.500Z,55.00
2022-08-26T15:59:31.772Z,56.20
2022-08-26T16:02:02.828Z,55.60
2022-08-26T16:04:34.338Z,57.60
2022-08-26T16:07:07.952Z,55.60
2022-08-26T16:09:39.120Z,56.00
2022-08-26T16:12:10.155Z,55.10
2022-08-26T16:14:41.540Z,59.40
2022-08-26T16:17:12.463Z,57.80
2022-08-26T16:19:43.618Z,61.50
2022-08-26T16:22:17.146Z,62.30
2022-08-26T16:24:48.359Z,62.20
2022-08-26T16:27:19.175Z,62.90
2022-08-26T16:29:54.349Z,63.60
2022-08-26T16:32:37.927Z,63.40
2022-08-26T16:35:09.992Z,63.30
2022-08-26T16:37:40.933Z,62.60
2022-08-26T16:40:12.939Z,64.00
2022-08-26T16:42:43.922Z,63.70
2022-08-26T16:45:17.475Z,64.90
2022-08-26T16:47:54.385Z,62.00
2022-08-26T16:50:26.367Z,63.70
2022-08-26T16:52:57.438Z,63.10
2022-08-26T16:55:28.644Z,65.10
2022-08-26T16:57:59.682Z,64.40
2022-08-26T17:00:32.236Z,62.30
2022-08-26T17:03:05.807Z,61.80
2022-08-26T17:05:37.238Z,61.10
2022-08-26T17:08:08.459Z,60.90
2022-08-26T17:10:40.381Z,61.80
2022-08-26T17:13:11.390Z,63.20
2022-08-26T17:15:54.211Z,61.00
2022-08-26T17:18:33.574Z,61.20
2022-08-26T17:21:05.335Z,62.40
2022-08-26T17:23:36.312Z,62.10
2022-08-26T17:26:07.871Z,62.10
2022-08-26T17:28:38.745Z,62.40
2022-08-26T17:31:10.805Z,63.40
2022-08-26T17:33:46.728Z,62.90
2022-08-26T17:36:20.121Z,62.40
2022-08-26T17:38:50.945Z,63.10
2022-08-26T17:41:25.567Z,65.60
2022-08-26T17:43:56.468Z,64.70
2022-08-26T17:46:28.151Z,66.80
2022-08-26T17:49:01.952Z,66.80
2022-08-26T17:51:33.487Z,64.90
2022-08-26T17:54:04.431Z,64.50
2022-08-26T17:56:35.652Z,66.70
2022-08-26T17:59:06.720Z,66.10
2022-08-26T18:01:39.089Z,66.40
2022-08-26T18:04:13.757Z,66.30
2022-08-26T18:06:45.067Z,66.10
2022-08-26T18:09:16.012Z,66.20
2022-08-26T18:11:47.205Z,66.70
2022-08-26T18:14:18.090Z,67.30
2022-08-26T18:16:49.297Z,67.10
2022-08-26T18:19:26.033Z,66.60
2022-08-26T18:21:57.274Z,66.90
2022-08-26T18:24:30.450Z,67.60
2022-08-26T18:27:01.650Z,68.20
2022-08-26T18:29:32.520Z,66.70
2022-08-26T18:32:03.755Z,69.00
2022-08-26T18:34:37.686Z,68.40
2022-08-26T18:39:59.752Z,68.00
2022-08-26T18:42:30.854Z,69.30
2022-08-26T18:45:02.148Z,68.10
2022-08-26T18:47:33.998Z,67.60
2022-08-26T18:50:11.045Z,68.50
2022-08-26T18:52:43.602Z,66.90
2022-08-26T18:55:14.576Z,69.20
2022-08-26T18:57:46.018Z,67.90
2022-08-26T19:00:17.671Z,68.90
2022-08-26T19:02:51.991Z,66.40
2022-08-26T19:05:25.996Z,68.80
2022-08-26T19:07:57.400Z,69.00
2022-08-26T19:10:28.509Z,67.80
2022-08-26T19:13:00.860Z,69.70
2022-08-26T19:15:33.813Z,69.10
2022-08-26T19:18:05.645Z,68.00
2022-08-26T19:20:44.716Z,68.60
2022-08-26T19:23:31.471Z,66.90
2022-08-26T19:26:06.016Z,69.00
2022-08-26T19:28:39.844Z,68.40
2022-08-26T19:31:11.962Z,69.40
2022-08-26T19:33:43.706Z,66.30
2022-08-26T19:36:18.970Z,70.00
2022-08-26T19:38:50.487Z,68.50
2022-08-26T19:41:24.559Z,69.10
2022-08-26T19:43:59.561Z,68.90
2022-08-26T19:46:31.055Z,68.70
2022-08-26T19:49:02.384Z,69.90
2022-08-26T19:51:37.322Z,69.60
2022-08-26T19:54:08.735Z,70.10
2022-08-26T19:56:39.653Z,70.10
2022-08-26T19:59:11.060Z,70.50
2022-08-26T20:01:42.114Z,70.20
2022-08-26T20:04:13.589Z,70.30
2022-08-26T20:06:47.165Z,70.00
2022-08-26T20:09:23.002Z,70.30
2022-08-26T20:11:56.892Z,70.10
2022-08-26T20:14:28.315Z,70.10
2022-08-26T20:16:59.350Z,70.30
2022-08-26T20:19:42.861Z,68.90
2022-08-26T20:22:16.509Z,69.00
2022-08-26T20:24:47.959Z,70.80
2022-08-26T20:27:18.888Z,70.20
2022-08-26T20:29:50.174Z,69.40
2022-08-26T20:32:22.485Z,69.60
2022-08-26T20:34:53.935Z,70.10
2022-08-26T20:37:29.167Z,70.30
2022-08-26T20:40:01.144Z,69.70
2022-08-26T20:42:32.178Z,70.30
2022-08-26T20:45:03.491Z,70.90
2022-08-26T20:47:34.382Z,69.90
2022-08-26T20:50:06.086Z,71.00
2022-08-26T20:52:39.767Z,70.10
2022-08-26T20:55:11.690Z,70.20
2022-08-26T20:57:43.540Z,70.20
2022-08-26T21:00:18.377Z,70.30
2022-08-26T21:02:51.088Z,70.70
2022-08-26T21:05:22.469Z,70.80
2022-08-26T21:07:56.157Z,71.10
2022-08-26T21:10:29.358Z,70.90
2022-08-26T21:13:00.676Z,70.90
2022-08-26T21:15:32.109Z,71.60
2022-08-26T21:18:03.609Z,71.90
2022-08-26T21:20:35.485Z,71.60
2022-08-26T21:23:09.039Z,72.10
2022-08-26T21:25:40.271Z,71.90
2022-08-26T21:28:11.318Z,71.70
2022-08-26T21:30:43.042Z,71.80
2022-08-26T21:33:13.950Z,71.90
2022-08-26T21:35:45.151Z,72.40
2022-08-26T21:38:18.648Z,72.70
2022-08-26T21:40:59.153Z,73.20
2022-08-26T21:43:34.892Z,72.50
2022-08-26T21:46:11.760Z,72.80
2022-08-26T21:48:45.667Z,72.50
2022-08-26T21:51:19.705Z,73.20
2022-08-26T21:53:53.656Z,73.70
2022-08-26T21:56:26.081Z,73.00
2022-08-26T21:58:57.595Z,73.20
2022-08-26T22:01:32.679Z,73.80
2022-08-26T22:04:04.020Z,73.60
2022-08-26T22:06:36.408Z,73.60
2022-08-26T22:09:09.955Z,73.80
2022-08-26T22:11:41.220Z,74.70
2022-08-26T22:14:12.257Z,73.90
2022-08-26T22:16:45.720Z,73.90
2022-08-26T22:19:23.536Z,74.30
2022-08-26T22:21:56.313Z,74.50
2022-08-26T22:24:30.125Z,74.30
2022-08-26T22:27:01.396Z,74.30
2022-08-26T22:29:32.465Z,74.80
2022-08-26T22:32:03.989Z,74.60
2022-08-26T22:34:34.940Z,75.00
2022-08-26T22:37:06.367Z,74.70
2022-08-26T22:39:40.216Z,75.00
2022-08-26T22:42:11.386Z,75.20
2022-08-26T22:44:43.971Z,75.20
2022-08-26T22:47:15.304Z,75.20
2022-08-26T22:49:46.948Z,74.50
2022-08-26T22:52:18.058Z,70.10
2022-08-26T22:54:52.219Z,74.50
2022-08-26T22:57:23.788Z,73.70
2022-08-26T22:59:54.682Z,73.80
2022-08-26T23:02:25.854Z,74.80
2022-08-26T23:04:56.801Z,75.30
2022-08-26T23:07:28.048Z,75.40
2022-08-26T23:10:01.542Z,75.40
2022-08-26T23:12:32.802Z,75.40
2022-08-26T23:15:04.210Z,74.30
2022-08-26T23:17:35.488Z,74.20
2022-08-26T23:20:08.720Z,72.80
2022-08-26T23:22:40.201Z,75.80
2022-08-26T23:25:14.443Z,76.00
2022-08-26T23:27:45.919Z,75.60
2022-08-26T23:30:19.365Z,75.70
2022-08-26T23:32:50.424Z,76.00
2022-08-26T23:35:21.862Z,76.00
2022-08-26T23:37:54.090Z,76.00
2022-08-26T23:40:32.279Z,76.10
2022-08-26T23:43:04.442Z,76.00
2022-08-26T23:45:35.622Z,76.40
2022-08-26T23:48:08.354Z,76.50
2022-08-26T23:50:51.664Z,76.50
2022-08-26T23:53:24.087Z,76.70
2022-08-26T23:55:57.483Z,76.90
2022-08-26T23:58:28.597Z,76.80
